Time;durP1;ratioP1;P1;durP2;ratioP2;P2;SDS_P1;SDS_P2;PMS_P1;PMS_P2;Temp;Humidity;BMP_temperature;BMP_pressure;BME280_temperature;BME280_humidity;BME280_pressure;Samples;Min_cycle;Max_cycle;Signal;HPM_P1;HPM_P2
2023/01/29 00:01:03;;;;;;;;;;;30.50;99.90;;;;;;5030573;28;19951;-72
2023/01/29 00:03:30;;;;;;;;;;;30.40;99.90;;;;;;5030918;28;21496;-72
2023/01/29 00:05:56;;;;;;;;;;;30.40;99.90;;;;;;5032011;28;19924;-72
2023/01/29 00:08:23;;;;;;;;;;;30.50;99.90;;;;;;5030141;28;19920;-73
2023/01/29 00:10:50;;;;;;;;;;;30.90;99.90;;;;;;5029259;28;19917;-72
2023/01/29 00:13:17;;;;;;;;;;;31.60;99.90;;;;;;5029716;28;19923;-72
2023/01/29 00:15:52;;;;;;;;;;;32.20;99.90;;;;;;5029855;28;20381;-72
2023/01/29 00:18:19;;;;;;;;;;;32.50;99.90;;;;;;5030070;28;19924;-72
2023/01/29 00:20:46;;;;;;;;;;;33.00;99.90;;;;;;5029550;28;20417;-72
2023/01/29 00:23:13;;;;;;;;;;;33.40;99.90;;;;;;5029649;28;19917;-71
2023/01/29 00:25:40;;;;;;;;;;;33.80;99.90;;;;;;5029415;28;19940;-72
2023/01/29 00:28:07;;;;;;;;;;;34.00;99.90;;;;;;5030432;28;20446;-73
2023/01/29 00:30:34;;;;;;;;;;;33.90;99.90;;;;;;5029727;28;19917;-72
2023/01/29 00:33:01;;;;;;;;;;;33.50;99.90;;;;;;5030363;28;19928;-72
2023/01/29 00:35:28;;;;;;;;;;;32.80;99.90;;;;;;5030374;28;19931;-72
2023/01/29 00:37:55;;;;;;;;;;;32.40;99.90;;;;;;5030265;28;19950;-71
2023/01/29 00:40:22;;;;;;;;;;;32.00;99.90;;;;;;5029486;28;20412;-72
2023/01/29 00:45:35;;;;;;;;;;;31.70;99.90;;;;;;5031972;28;19939;-73
2023/01/29 00:48:03;;;;;;;;;;;31.80;99.90;;;;;;5030106;28;20359;-72
2023/01/29 00:50:30;;;;;;;;;;;31.90;99.90;;;;;;5029603;28;20180;-72
2023/01/29 00:52:57;;;;;;;;;;;31.90;99.90;;;;;;5029795;28;19916;-71
2023/01/29 00:55:23;;;;;;;;;;;31.80;99.90;;;;;;5030816;28;20007;-73
2023/01/29 00:57:50;;;;;;;;;;;32.00;99.90;;;;;;5029299;28;20356;-71
2023/01/29 01:00:17;;;;;;;;;;;32.50;99.90;;;;;;5028230;28;20015;-72
2023/01/29 01:05:29;;;;;;;;;;;33.40;99.90;;;;;;5029717;28;20358;-72
2023/01/29 01:07:57;;;;;;;;;;;33.60;99.90;;;;;;5035570;28;19913;-72
2023/01/29 01:10:25;;;;;;;;;;;33.90;99.90;;;;;;5027155;28;20003;-72
2023/01/29 01:13:00;;;;;;;;;;;34.20;99.90;;;;;;5030126;28;19951;-72
2023/01/29 01:15:44;;;;;;;;;;;34.60;99.90;;;;;;5030133;28;19920;-71
2023/01/29 01:18:11;;;;;;;;;;;34.70;99.90;;;;;;5030041;28;19925;-71
2023/01/29 01:20:38;;;;;;;;;;;34.90;99.90;;;;;;5027811;28;19962;-71
2023/01/29 01:23:05;;;;;;;;;;;35.40;99.20;;;;;;5030605;28;19919;-70
2023/01/29 01:25:32;;;;;;;;;;;35.10;99.10;;;;;;5029436;28;19974;-70
2023/01/29 01:27:59;;;;;;;;;;;34.90;99.40;;;;;;5029415;28;19916;-70
2023/01/29 01:30:26;;;;;;;;;;;34.70;99.30;;;;;;5028609;28;19917;-72
2023/01/29 01:32:53;;;;;;;;;;;34.40;99.20;;;;;;5030026;28;19912;-71
2023/01/29 01:35:20;;;;;;;;;;;34.20;99.40;;;;;;5027630;28;19928;-71
2023/01/29 01:37:46;;;;;;;;;;;33.80;99.90;;;;;;5030876;28;19916;-71
2023/01/29 01:40:16;;;;;;;;;;;33.70;99.90;;;;;;5032751;28;22388;-71
2023/01/29 01:42:44;;;;;;;;;;;34.00;99.90;;;;;;5032430;28;20365;-72
2023/01/29 01:45:31;;;;;;;;;;;34.20;99.90;;;;;;5032023;28;20205;-70
2023/01/29 01:48:12;;;;;;;;;;;34.40;99.90;;;;;;5031565;28;19920;-73
2023/01/29 01:50:49;;;;;;;;;;;34.50;99.90;;;;;;5030085;28;19917;-72
2023/01/29 01:53:25;;;;;;;;;;;34.40;99.90;;;;;;5032765;28;19966;-71
2023/01/29 01:55:56;;;;;;;;;;;34.40;99.90;;;;;;5031679;28;19916;-72
2023/01/29 01:58:25;;;;;;;;;;;34.30;99.90;;;;;;5031534;28;19916;-72
2023/01/29 02:00:53;;;;;;;;;;;34.10;99.90;;;;;;5029983;28;19921;-72
2023/01/29 02:11:44;;;;;;;;;;;34.10;99.90;;;;;;5033017;28;19942;-73
2023/01/29 02:14:11;;;;;;;;;;;34.10;99.90;;;;;;5041334;28;19912;-72
2023/01/29 02:16:38;;;;;;;;;;;34.10;99.90;;;;;;5030867;28;20036;-73
2023/01/29 02:19:08;;;;;;;;;;;34.20;99.90;;;;;;5048874;28;20000;-72
2023/01/29 02:21:47;;;;;;;;;;;34.20;99.90;;;;;;5032561;28;19912;-72
2023/01/29 02:24:26;;;;;;;;;;;34.30;99.90;;;;;;5033225;28;20386;-72
2023/01/29 02:27:08;;;;;;;;;;;34.40;99.90;;;;;;5032519;28;19951;-71
2023/01/29 02:29:35;;;;;;;;;;;34.50;99.90;;;;;;5030875;28;20551;-71
2023/01/29 02:32:23;;;;;;;;;;;34.60;99.90;;;;;;5031245;28;19914;-71
2023/01/29 02:35:28;;;;;;;;;;;34.70;99.90;;;;;;5030429;28;19924;-71
2023/01/29 02:37:55;;;;;;;;;;;35.00;99.90;;;;;;5031110;28;19968;-71
2023/01/29 02:40:29;;;;;;;;;;;35.10;99.90;;;;;;5029304;28;19916;-71
2023/01/29 02:43:14;;;;;;;;;;;35.30;99.90;;;;;;5031018;28;20363;-71
2023/01/29 02:46:02;;;;;;;;;;;35.50;99.90;;;;;;5026386;28;19913;-72
2023/01/29 02:48:34;;;;;;;;;;;35.40;99.00;;;;;;5031320;28;19917;-71
2023/01/29 02:51:04;;;;;;;;;;;35.40;98.80;;;;;;5032869;28;19912;-72
2023/01/29 02:54:07;;;;;;;;;;;35.40;99.10;;;;;;5032691;28;19917;-71
2023/01/29 02:56:40;;;;;;;;;;;35.30;99.00;;;;;;4992976;28;19924;-74
2023/01/29 02:59:16;;;;;;;;;;;35.50;99.00;;;;;;5027748;28;20779;-71
2023/01/29 03:01:48;;;;;;;;;;;36.10;98.80;;;;;;5031650;28;19913;-73
2023/01/29 03:04:22;;;;;;;;;;;36.60;98.40;;;;;;5031811;28;20390;-73
2023/01/29 03:06:53;;;;;;;;;;;37.20;97.90;;;;;;5032639;28;19916;-73
2023/01/29 03:09:22;;;;;;;;;;;37.40;97.40;;;;;;5037935;28;19923;-72
2023/01/29 03:11:51;;;;;;;;;;;37.50;97.20;;;;;;5031657;28;19920;-73
2023/01/29 03:14:23;;;;;;;;;;;37.70;96.90;;;;;;5034229;28;19909;-73
2023/01/29 03:16:50;;;;;;;;;;;38.10;96.80;;;;;;5031086;28;19923;-73
2023/01/29 03:19:26;;;;;;;;;;;38.10;96.20;;;;;;5031484;28;19932;-73
2023/01/29 03:21:58;;;;;;;;;;;37.60;95.60;;;;;;5031100;28;20007;-74
2023/01/29 03:32:44;;;;;;;;;;;36.50;95.20;;;;;;5031150;28;19924;-71
2023/01/29 03:35:13;;;;;;;;;;;35.80;94.70;;;;;;5031855;28;22255;-71
2023/01/29 03:37:44;;;;;;;;;;;35.20;94.70;;;;;;5031686;28;19999;-71
2023/01/29 03:40:11;;;;;;;;;;;34.70;93.20;;;;;;5031335;28;19956;-73
2023/01/29 03:42:44;;;;;;;;;;;34.40;93.00;;;;;;5034940;28;19936;-74
2023/01/29 03:45:13;;;;;;;;;;;34.00;93.60;;;;;;5031892;28;19916;-73
2023/01/29 03:47:41;;;;;;;;;;;33.80;94.20;;;;;;5051093;28;20279;-73
2023/01/29 03:50:13;;;;;;;;;;;33.60;94.50;;;;;;5031231;28;19916;-72
2023/01/29 03:52:40;;;;;;;;;;;33.40;94.50;;;;;;5033044;28;20330;-71
2023/01/29 03:55:13;;;;;;;;;;;33.20;94.50;;;;;;5031322;28;19913;-72
2023/01/29 03:57:44;;;;;;;;;;;33.10;95.30;;;;;;5031386;28;19908;-72
2023/01/29 04:00:20;;;;;;;;;;;33.00;95.90;;;;;;5030473;28;19916;-72
2023/01/29 04:02:56;;;;;;;;;;;32.80;95.90;;;;;;5031168;28;19954;-72
2023/01/29 04:05:27;;;;;;;;;;;32.60;97.40;;;;;;5030986;28;19913;-73
2023/01/29 04:07:58;;;;;;;;;;;32.40;96.70;;;;;;5024261;28;19917;-73
2023/01/29 04:10:27;;;;;;;;;;;32.10;95.00;;;;;;5033633;28;19954;-72
2023/01/29 04:12:56;;;;;;;;;;;31.90;94.30;;;;;;5040161;28;19939;-73
2023/01/29 04:15:24;;;;;;;;;;;31.80;93.90;;;;;;5030929;28;19944;-73
2023/01/29 04:17:51;;;;;;;;;;;31.50;95.50;;;;;;5030401;28;19916;-72
2023/01/29 04:20:19;;;;;;;;;;;30.90;96.60;;;;;;5031075;28;20485;-72
2023/01/29 04:22:47;;;;;;;;;;;30.30;97.70;;;;;;5033210;28;19913;-72
2023/01/29 04:25:25;;;;;;;;;;;29.80;98.80;;;;;;5030594;28;19913;-72
2023/01/29 04:28:00;;;;;;;;;;;29.50;99.80;;;;;;5030385;28;19920;-70
2023/01/29 04:30:37;;;;;;;;;;;29.20;99.90;;;;;;5030600;28;19924;-72
2023/01/29 04:33:07;;;;;;;;;;;29.00;99.90;;;;;;5032660;28;19913;-72
2023/01/29 04:35:35;;;;;;;;;;;28.70;99.90;;;;;;5030242;28;19916;-73
2023/01/29 04:38:17;;;;;;;;;;;28.50;99.90;;;;;;5045106;28;20059;-72
2023/01/29 04:40:49;;;;;;;;;;;28.30;99.90;;;;;;5043816;28;20290;-72
2023/01/29 04:43:19;;;;;;;;;;;28.20;99.90;;;;;;5030013;28;19971;-72
2023/01/29 04:45:55;;;;;;;;;;;28.20;99.90;;;;;;5029834;28;19916;-71
2023/01/29 04:48:24;;;;;;;;;;;27.90;99.90;;;;;;5032340;28;20015;-71
2023/01/29 04:51:00;;;;;;;;;;;27.70;99.90;;;;;;5030809;28;19939;-71
2023/01/29 04:53:51;;;;;;;;;;;27.30;99.90;;;;;;5031291;28;19943;-72
2023/01/29 04:56:24;;;;;;;;;;;27.00;99.90;;;;;;5030815;28;20406;-72
2023/01/29 04:58:54;;;;;;;;;;;26.70;99.90;;;;;;5032109;28;19925;-72
2023/01/29 05:01:24;;;;;;;;;;;26.50;99.90;;;;;;5030819;28;19922;-72
2023/01/29 05:03:53;;;;;;;;;;;26.50;99.90;;;;;;5030789;28;19951;-72
2023/01/29 05:06:20;;;;;;;;;;;26.40;99.90;;;;;;5030747;28;19927;-72
2023/01/29 05:08:47;;;;;;;;;;;26.30;99.90;;;;;;5033204;28;19971;-72
2023/01/29 05:11:14;;;;;;;;;;;26.30;99.90;;;;;;5034458;28;19909;-73
2023/01/29 05:13:42;;;;;;;;;;;26.20;99.90;;;;;;5034737;28;19912;-72
2023/01/29 05:16:18;;;;;;;;;;;26.10;99.90;;;;;;5034731;28;20326;-72
2023/01/29 05:18:45;;;;;;;;;;;26.00;99.90;;;;;;5035628;28;19925;-70
2023/01/29 05:21:12;;;;;;;;;;;25.80;99.90;;;;;;5033818;28;19920;-72
2023/01/29 05:23:58;;;;;;;;;;;25.70;99.90;;;;;;5035166;28;19913;-72
2023/01/29 05:29:11;;;;;;;;;;;25.60;99.90;;;;;;5035932;28;19919;-72
2023/01/29 05:31:37;;;;;;;;;;;25.60;99.90;;;;;;5035092;28;19913;-70
2023/01/29 05:34:04;;;;;;;;;;;25.60;99.90;;;;;;5035707;28;19921;-72
2023/01/29 05:36:30;;;;;;;;;;;25.60;99.90;;;;;;5034066;28;19931;-74
2023/01/29 05:38:57;;;;;;;;;;;25.70;99.90;;;;;;5033984;28;19927;-71
2023/01/29 05:41:24;;;;;;;;;;;25.70;99.90;;;;;;5033143;28;19970;-72
2023/01/29 05:43:54;;;;;;;;;;;25.70;99.90;;;;;;5035452;28;19931;-73
2023/01/29 05:46:20;;;;;;;;;;;25.70;99.90;;;;;;5033319;28;19917;-71
2023/01/29 05:48:47;;;;;;;;;;;25.70;99.90;;;;;;5033711;28;19916;-74
2023/01/29 05:51:13;;;;;;;;;;;25.70;99.90;;;;;;5032981;28;19917;-73
2023/01/29 05:53:40;;;;;;;;;;;25.80;99.90;;;;;;5034621;28;20388;-74
2023/01/29 05:56:07;;;;;;;;;;;25.70;99.90;;;;;;5034130;28;19919;-72
2023/01/29 05:58:34;;;;;;;;;;;25.60;99.90;;;;;;5033167;28;19924;-73
2023/01/29 06:01:22;;;;;;;;;;;25.70;99.90;;;;;;5033027;28;19917;-72
2023/01/29 06:03:49;;;;;;;;;;;25.70;99.90;;;;;;5034472;28;20346;-72
2023/01/29 06:06:16;;;;;;;;;;;25.70;99.90;;;;;;5033801;28;19916;-74
2023/01/29 06:08:43;;;;;;;;;;;25.60;99.90;;;;;;5033375;28;20073;-75
2023/01/29 06:11:11;;;;;;;;;;;25.60;99.90;;;;;;5032789;28;20600;-73
2023/01/29 06:13:38;;;;;;;;;;;25.70;99.90;;;;;;5041424;28;20367;-71
2023/01/29 06:16:08;;;;;;;;;;;25.60;99.90;;;;;;5033535;28;19912;-71
2023/01/29 06:18:37;;;;;;;;;;;25.50;99.90;;;;;;5033413;28;19930;-72
2023/01/29 06:21:05;;;;;;;;;;;25.20;99.90;;;;;;5030276;28;19916;-72
2023/01/29 06:23:32;;;;;;;;;;;25.10;99.90;;;;;;5032432;28;19969;-74
2023/01/29 06:26:09;;;;;;;;;;;25.00;99.90;;;;;;5033766;28;20016;-75
2023/01/29 06:28:36;;;;;;;;;;;24.90;99.90;;;;;;5032738;28;20096;-71
2023/01/29 06:31:04;;;;;;;;;;;24.80;99.90;;;;;;5033174;28;19936;-72
2023/01/29 06:33:30;;;;;;;;;;;24.70;99.90;;;;;;5033879;28;19920;-73
2023/01/29 06:35:58;;;;;;;;;;;24.70;99.90;;;;;;5033258;28;20011;-73
2023/01/29 06:38:25;;;;;;;;;;;24.60;99.90;;;;;;5033608;28;19917;-74
2023/01/29 06:40:51;;;;;;;;;;;24.60;99.90;;;;;;5032480;28;20260;-73
2023/01/29 06:43:18;;;;;;;;;;;24.50;99.90;;;;;;5033615;28;19917;-72
2023/01/29 06:45:56;;;;;;;;;;;24.50;99.90;;;;;;5032739;28;21183;-72
2023/01/29 06:48:24;;;;;;;;;;;24.50;99.90;;;;;;5033768;28;19917;-72
2023/01/29 06:50:52;;;;;;;;;;;24.40;99.90;;;;;;5033204;28;19924;-72
2023/01/29 06:53:19;;;;;;;;;;;24.40;99.90;;;;;;5034453;28;19913;-72
2023/01/29 06:55:52;;;;;;;;;;;24.30;99.90;;;;;;5032482;28;20336;-75
2023/01/29 06:58:20;;;;;;;;;;;24.20;99.90;;;;;;5034372;28;20325;-72
2023/01/29 07:00:46;;;;;;;;;;;24.30;99.90;;;;;;5032099;28;19912;-72
2023/01/29 07:03:13;;;;;;;;;;;24.30;99.90;;;;;;5033520;28;20023;-72
2023/01/29 07:05:40;;;;;;;;;;;24.30;99.90;;;;;;5031749;28;19982;-73
2023/01/29 07:08:08;;;;;;;;;;;24.30;99.90;;;;;;5041497;28;19948;-71
2023/01/29 07:10:35;;;;;;;;;;;24.40;99.90;;;;;;5026596;28;19962;-74
2023/01/29 07:13:02;;;;;;;;;;;24.40;99.90;;;;;;5034588;28;21498;-75
2023/01/29 07:15:28;;;;;;;;;;;24.50;99.90;;;;;;5031949;28;19970;-73
2023/01/29 07:17:58;;;;;;;;;;;24.50;99.90;;;;;;5032784;28;19965;-73
2023/01/29 07:20:26;;;;;;;;;;;24.60;99.90;;;;;;5032535;28;19920;-75
2023/01/29 07:22:53;;;;;;;;;;;24.60;99.90;;;;;;5033319;28;19916;-73
2023/01/29 07:25:20;;;;;;;;;;;24.60;99.90;;;;;;5031755;28;19921;-73
2023/01/29 07:27:47;;;;;;;;;;;24.70;99.90;;;;;;5032300;28;19917;-77
2023/01/29 07:30:14;;;;;;;;;;;24.70;99.90;;;;;;5031627;28;19920;-73
2023/01/29 07:32:41;;;;;;;;;;;24.80;99.90;;;;;;5032624;28;20455;-73
2023/01/29 07:35:08;;;;;;;;;;;24.80;99.90;;;;;;5031522;28;19927;-73
2023/01/29 07:37:35;;;;;;;;;;;24.80;99.90;;;;;;5033578;28;20011;-73
2023/01/29 07:40:03;;;;;;;;;;;24.80;99.90;;;;;;5031226;28;19964;-72
2023/01/29 07:42:36;;;;;;;;;;;24.80;99.90;;;;;;5032530;28;20442;-72
2023/01/29 07:45:03;;;;;;;;;;;24.80;99.90;;;;;;5032363;28;20381;-74
2023/01/29 07:47:29;;;;;;;;;;;24.90;99.90;;;;;;5033719;28;19920;-73
2023/01/29 07:49:56;;;;;;;;;;;24.80;99.90;;;;;;5030159;28;20508;-75
2023/01/29 07:52:23;;;;;;;;;;;24.90;99.90;;;;;;5033405;28;19917;-74
2023/01/29 07:54:50;;;;;;;;;;;24.90;99.90;;;;;;5030996;28;19909;-75
2023/01/29 07:57:16;;;;;;;;;;;25.00;99.90;;;;;;5032252;28;19948;-73
2023/01/29 07:59:43;;;;;;;;;;;25.00;99.90;;;;;;5033045;28;19995;-73
2023/01/29 08:02:10;;;;;;;;;;;25.10;99.90;;;;;;5030795;28;19913;-73
2023/01/29 08:04:37;;;;;;;;;;;25.10;99.90;;;;;;5033115;28;19908;-72
2023/01/29 08:07:03;;;;;;;;;;;25.10;99.90;;;;;;5033025;28;19908;-74
2023/01/29 08:09:30;;;;;;;;;;;25.10;99.90;;;;;;5031636;28;19943;-72
2023/01/29 08:11:57;;;;;;;;;;;25.10;99.90;;;;;;5034544;28;19997;-73
2023/01/29 08:14:24;;;;;;;;;;;25.10;99.90;;;;;;5035451;28;19917;-75
2023/01/29 08:16:51;;;;;;;;;;;25.10;99.90;;;;;;5030254;28;20387;-74
2023/01/29 08:19:18;;;;;;;;;;;25.10;99.90;;;;;;5030403;28;19924;-74
2023/01/29 08:21:45;;;;;;;;;;;25.10;99.90;;;;;;5031030;28;19917;-77
2023/01/29 08:24:11;;;;;;;;;;;25.10;99.90;;;;;;5031806;28;19913;-73
2023/01/29 08:26:38;;;;;;;;;;;25.10;99.90;;;;;;5031400;28;20392;-75
2023/01/29 08:29:05;;;;;;;;;;;25.10;99.90;;;;;;5030657;28;19913;-71
2023/01/29 08:31:32;;;;;;;;;;;25.10;99.90;;;;;;5031007;28;20194;-76
2023/01/29 08:33:59;;;;;;;;;;;25.10;99.90;;;;;;5032002;28;19924;-73
2023/01/29 08:36:25;;;;;;;;;;;25.10;99.90;;;;;;5030583;28;19925;-74
2023/01/29 08:38:52;;;;;;;;;;;25.10;99.90;;;;;;5031856;28;19999;-73
2023/01/29 08:41:19;;;;;;;;;;;25.00;99.90;;;;;;5030047;28;20935;-74
2023/01/29 08:43:46;;;;;;;;;;;25.00;99.90;;;;;;5032567;28;20285;-72
2023/01/29 08:46:12;;;;;;;;;;;25.00;99.90;;;;;;5033086;28;19916;-73
2023/01/29 08:48:39;;;;;;;;;;;25.00;99.90;;;;;;5034611;28;20879;-73
2023/01/29 08:51:06;;;;;;;;;;;25.00;99.90;;;;;;5033863;28;19944;-72
2023/01/29 08:53:33;;;;;;;;;;;25.00;99.90;;;;;;5034858;28;19923;-73
2023/01/29 08:55:59;;;;;;;;;;;25.10;99.90;;;;;;5034346;28;19917;-72
2023/01/29 08:58:26;;;;;;;;;;;25.00;99.90;;;;;;5034837;28;19961;-71
2023/01/29 09:00:53;;;;;;;;;;;24.90;99.90;;;;;;5035731;28;19913;-72
2023/01/29 09:03:20;;;;;;;;;;;24.90;99.90;;;;;;5034770;28;19912;-73
2023/01/29 09:05:46;;;;;;;;;;;24.90;99.90;;;;;;5034156;28;19923;-73
2023/01/29 09:08:14;;;;;;;;;;;24.90;99.90;;;;;;5035600;28;20408;-75
2023/01/29 09:10:40;;;;;;;;;;;24.90;99.90;;;;;;5040495;28;19923;-73
2023/01/29 09:13:07;;;;;;;;;;;24.90;99.90;;;;;;5047694;28;20187;-74
2023/01/29 09:15:34;;;;;;;;;;;24.90;99.90;;;;;;5034359;28;19920;-75
2023/01/29 09:18:04;;;;;;;;;;;24.80;99.90;;;;;;5033876;28;20275;-74
2023/01/29 09:20:31;;;;;;;;;;;24.80;99.90;;;;;;5033769;28;19917;-74
2023/01/29 09:22:58;;;;;;;;;;;24.80;99.90;;;;;;5034725;28;20432;-73
2023/01/29 09:25:25;;;;;;;;;;;24.80;99.90;;;;;;5034145;28;19939;-73
2023/01/29 09:27:53;;;;;;;;;;;24.70;99.90;;;;;;5034951;28;20023;-72
2023/01/29 09:30:20;;;;;;;;;;;24.70;99.90;;;;;;5035094;28;20465;-73
2023/01/29 09:32:46;;;;;;;;;;;24.60;99.90;;;;;;5033897;28;20363;-74
2023/01/29 09:35:13;;;;;;;;;;;24.60;99.90;;;;;;5033908;28;20243;-72
2023/01/29 09:37:39;;;;;;;;;;;24.50;99.90;;;;;;5034578;28;20333;-73
2023/01/29 09:40:11;;;;;;;;;;;24.50;99.90;;;;;;5033961;28;19931;-73
2023/01/29 09:42:40;;;;;;;;;;;24.50;99.90;;;;;;5034269;28;19928;-72
2023/01/29 09:45:39;;;;;;;;;;;24.50;99.90;;;;;;5033572;28;19919;-73
2023/01/29 09:48:09;;;;;;;;;;;24.50;99.90;;;;;;4999470;28;19923;-71
2023/01/29 09:50:41;;;;;;;;;;;24.50;99.90;;;;;;5033061;28;20349;-72
2023/01/29 09:53:23;;;;;;;;;;;24.40;99.90;;;;;;5035547;28;19916;-72
2023/01/29 09:56:00;;;;;;;;;;;24.40;99.90;;;;;;5033743;28;19913;-73
2023/01/29 09:58:27;;;;;;;;;;;24.40;99.90;;;;;;5033758;28;20007;-72
2023/01/29 10:01:03;;;;;;;;;;;24.40;99.90;;;;;;5033065;28;19923;-74
2023/01/29 10:03:55;;;;;;;;;;;24.30;99.90;;;;;;5048841;28;20367;-73
2023/01/29 10:06:35;;;;;;;;;;;24.20;99.90;;;;;;5033528;28;19915;-74
2023/01/29 10:09:20;;;;;;;;;;;24.20;99.90;;;;;;5033669;28;19935;-72
2023/01/29 10:11:56;;;;;;;;;;;24.20;99.90;;;;;;5032957;28;20011;-73
2023/01/29 10:14:23;;;;;;;;;;;24.20;99.90;;;;;;5043419;28;19916;-71
2023/01/29 10:17:01;;;;;;;;;;;24.10;99.90;;;;;;5032869;28;19921;-73
2023/01/29 10:19:53;;;;;;;;;;;24.10;99.90;;;;;;5034355;28;19932;-72
2023/01/29 10:22:42;;;;;;;;;;;24.10;99.90;;;;;;5033401;28;21059;-72
2023/01/29 10:25:14;;;;;;;;;;;24.10;99.90;;;;;;5033115;28;19913;-75
2023/01/29 10:27:45;;;;;;;;;;;24.10;99.90;;;;;;5033322;28;19917;-74
2023/01/29 10:30:18;;;;;;;;;;;24.10;99.90;;;;;;5032511;28;19956;-75
2023/01/29 10:32:44;;;;;;;;;;;24.10;99.90;;;;;;5032935;28;19916;-73
2023/01/29 10:35:22;;;;;;;;;;;24.20;99.90;;;;;;5031949;28;20757;-71
2023/01/29 10:37:52;;;;;;;;;;;24.10;99.90;;;;;;5031908;28;19955;-74
2023/01/29 10:40:24;;;;;;;;;;;24.10;99.90;;;;;;5030678;28;19992;-74
2023/01/29 10:43:10;;;;;;;;;;;24.10;99.90;;;;;;5032606;28;19956;-73
2023/01/29 10:46:06;;;;;;;;;;;24.10;99.90;;;;;;5033327;28;19912;-75
2023/01/29 10:48:36;;;;;;;;;;;24.10;99.90;;;;;;5020399;28;20287;-73
2023/01/29 10:51:32;;;;;;;;;;;24.00;99.90;;;;;;5032349;28;19930;-73
2023/01/29 10:54:17;;;;;;;;;;;24.10;99.90;;;;;;5019912;28;19920;-72
2023/01/29 10:56:46;;;;;;;;;;;24.10;99.90;;;;;;5030120;28;19921;-72
2023/01/29 10:59:16;;;;;;;;;;;24.10;99.90;;;;;;5032749;28;19986;-70
2023/01/29 11:01:43;;;;;;;;;;;24.10;99.90;;;;;;5029975;28;19971;-74
2023/01/29 11:04:11;;;;;;;;;;;24.00;99.90;;;;;;5033006;28;20512;-75
2023/01/29 11:06:38;;;;;;;;;;;24.00;99.90;;;;;;5030773;28;19990;-74
2023/01/29 11:09:04;;;;;;;;;;;24.00;99.90;;;;;;5036830;28;19917;-71
2023/01/29 11:11:38;;;;;;;;;;;24.00;99.90;;;;;;5031796;28;19962;-73
2023/01/29 11:14:07;;;;;;;;;;;24.00;99.90;;;;;;5033283;28;20635;-74
2023/01/29 11:16:41;;;;;;;;;;;24.00;99.90;;;;;;5030899;28;19912;-73
2023/01/29 11:19:08;;;;;;;;;;;23.90;99.90;;;;;;5032705;28;19948;-71
2023/01/29 11:21:55;;;;;;;;;;;23.90;99.90;;;;;;5031868;28;20115;-72
2023/01/29 11:24:22;;;;;;;;;;;23.80;99.90;;;;;;5031345;28;20348;-76
2023/01/29 11:26:49;;;;;;;;;;;23.90;99.90;;;;;;5030479;28;19916;-72
2023/01/29 11:29:34;;;;;;;;;;;23.90;99.90;;;;;;5031914;28;20011;-75
2023/01/29 11:32:04;;;;;;;;;;;23.90;99.90;;;;;;5040141;28;20417;-77
2023/01/29 11:34:31;;;;;;;;;;;23.90;99.90;;;;;;5030711;28;19917;-77
2023/01/29 11:37:01;;;;;;;;;;;23.90;99.90;;;;;;5032526;28;19924;-79
2023/01/29 11:39:29;;;;;;;;;;;23.80;99.90;;;;;;5034379;28;19924;-76
2023/01/29 11:41:58;;;;;;;;;;;23.80;99.90;;;;;;5033419;28;19960;-74
2023/01/29 11:44:37;;;;;;;;;;;23.80;99.90;;;;;;5034280;28;19978;-76
2023/01/29 11:47:12;;;;;;;;;;;23.80;99.90;;;;;;5033596;28;19916;-72
2023/01/29 11:49:40;;;;;;;;;;;23.80;99.90;;;;;;5029536;28;19927;-71
2023/01/29 11:52:08;;;;;;;;;;;23.80;99.90;;;;;;5028200;28;19908;-74
2023/01/29 11:54:49;;;;;;;;;;;23.70;99.90;;;;;;5031718;28;20037;-72
2023/01/29 11:57:21;;;;;;;;;;;23.70;99.90;;;;;;5032247;28;19938;-72
2023/01/29 11:59:50;;;;;;;;;;;23.70;99.90;;;;;;5030621;28;19952;-72
2023/01/29 12:02:23;;;;;;;;;;;23.70;99.90;;;;;;5031973;28;19913;-74
2023/01/29 12:04:50;;;;;;;;;;;23.70;99.90;;;;;;5031392;28;19924;-75
2023/01/29 12:07:18;;;;;;;;;;;23.60;99.90;;;;;;5033521;28;19917;-72
2023/01/29 12:09:58;;;;;;;;;;;23.70;99.90;;;;;;5037469;28;19928;-71
2023/01/29 12:12:25;;;;;;;;;;;23.60;99.90;;;;;;5043195;28;20379;-73
2023/01/29 12:15:02;;;;;;;;;;;23.60;99.90;;;;;;5032509;28;19920;-73
2023/01/29 12:17:30;;;;;;;;;;;23.60;99.90;;;;;;5030086;28;20003;-70
2023/01/29 12:20:03;;;;;;;;;;;23.60;99.90;;;;;;5029702;28;19927;-72
2023/01/29 12:22:48;;;;;;;;;;;23.50;99.90;;;;;;5031251;28;20394;-70
2023/01/29 12:25:21;;;;;;;;;;;23.60;99.90;;;;;;5028325;28;20401;-71
2023/01/29 12:28:05;;;;;;;;;;;23.60;99.90;;;;;;5031493;28;19917;-74
2023/01/29 12:30:40;;;;;;;;;;;23.60;99.90;;;;;;5044723;28;19932;-72
2023/01/29 12:33:14;;;;;;;;;;;23.60;99.90;;;;;;5030659;28;20558;-72
2023/01/29 12:35:47;;;;;;;;;;;23.60;99.90;;;;;;5029385;28;20492;-72
2023/01/29 12:38:21;;;;;;;;;;;23.50;99.90;;;;;;5032312;28;19971;-70
2023/01/29 12:40:56;;;;;;;;;;;23.50;99.90;;;;;;5031117;28;19913;-71
2023/01/29 12:43:25;;;;;;;;;;;23.50;99.90;;;;;;5032758;28;19916;-72
2023/01/29 12:45:55;;;;;;;;;;;23.60;99.90;;;;;;5030407;28;19917;-72
2023/01/29 12:48:28;;;;;;;;;;;23.50;99.90;;;;;;5030341;28;19916;-71
2023/01/29 12:50:56;;;;;;;;;;;23.50;99.90;;;;;;5029477;28;19913;-72
2023/01/29 12:53:44;;;;;;;;;;;23.60;99.90;;;;;;5031417;28;19936;-73
2023/01/29 12:56:25;;;;;;;;;;;23.60;99.90;;;;;;5029095;28;19927;-70
2023/01/29 12:58:53;;;;;;;;;;;23.50;99.90;;;;;;5031204;28;19923;-72
2023/01/29 13:01:40;;;;;;;;;;;23.60;99.90;;;;;;5030847;28;19916;-73
2023/01/29 13:04:14;;;;;;;;;;;23.60;99.90;;;;;;5031625;28;19917;-71
2023/01/29 13:07:00;;;;;;;;;;;23.50;99.90;;;;;;5030794;28;19967;-70
2023/01/29 13:09:31;;;;;;;;;;;23.60;99.90;;;;;;5040579;28;19913;-70
2023/01/29 13:12:04;;;;;;;;;;;23.50;99.90;;;;;;5029551;28;19917;-71
2023/01/29 13:14:48;;;;;;;;;;;23.50;99.90;;;;;;5029976;28;19995;-70
2023/01/29 13:17:15;;;;;;;;;;;23.50;99.90;;;;;;5029839;28;19959;-68
2023/01/29 13:19:44;;;;;;;;;;;23.50;99.90;;;;;;5029857;28;19927;-69
2023/01/29 13:22:16;;;;;;;;;;;23.50;99.90;;;;;;5030681;28;19916;-72
2023/01/29 13:24:43;;;;;;;;;;;23.50;99.90;;;;;;5029471;28;19999;-72
2023/01/29 13:27:25;;;;;;;;;;;23.40;99.90;;;;;;5029983;28;19940;-71
2023/01/29 13:29:52;;;;;;;;;;;23.40;99.90;;;;;;5029449;28;19916;-72
2023/01/29 13:32:20;;;;;;;;;;;23.40;99.90;;;;;;5029842;28;19923;-72
2023/01/29 13:34:47;;;;;;;;;;;23.40;99.90;;;;;;5033162;28;19928;-72
2023/01/29 13:37:34;;;;;;;;;;;23.40;99.90;;;;;;5033477;28;20031;-73
2023/01/29 13:40:01;;;;;;;;;;;23.40;99.90;;;;;;5032067;28;20363;-72
2023/01/29 13:42:47;;;;;;;;;;;23.40;99.90;;;;;;5031068;28;19923;-73
2023/01/29 13:45:19;;;;;;;;;;;23.40;99.90;;;;;;5033901;28;19912;-72
2023/01/29 13:47:47;;;;;;;;;;;23.40;99.90;;;;;;5034317;28;20208;-72
2023/01/29 13:50:19;;;;;;;;;;;23.40;99.90;;;;;;5032212;28;19949;-72
2023/01/29 13:52:52;;;;;;;;;;;23.40;99.90;;;;;;5034921;28;20040;-71
2023/01/29 13:55:24;;;;;;;;;;;23.40;99.90;;;;;;5032648;28;19917;-72
2023/01/29 13:57:52;;;;;;;;;;;23.40;99.90;;;;;;5033957;28;19916;-73
2023/01/29 14:00:29;;;;;;;;;;;23.40;99.90;;;;;;5032075;28;19976;-72
2023/01/29 14:02:56;;;;;;;;;;;23.40;99.90;;;;;;5036131;28;19920;-72
2023/01/29 14:05:29;;;;;;;;;;;23.40;99.90;;;;;;5034389;28;19952;-73
2023/01/29 14:08:02;;;;;;;;;;;23.40;99.90;;;;;;5033829;28;20001;-72
2023/01/29 14:10:30;;;;;;;;;;;23.40;99.90;;;;;;5032787;28;20347;-71
2023/01/29 14:12:59;;;;;;;;;;;23.30;99.90;;;;;;5033895;28;20287;-71
2023/01/29 14:15:28;;;;;;;;;;;23.30;99.90;;;;;;5033030;28;19917;-72
2023/01/29 14:18:04;;;;;;;;;;;23.30;99.90;;;;;;5033613;28;19948;-73
2023/01/29 14:20:50;;;;;;;;;;;23.30;99.90;;;;;;5033425;28;19924;-73
2023/01/29 14:23:25;;;;;;;;;;;23.30;99.90;;;;;;5034177;28;19913;-72
2023/01/29 14:25:52;;;;;;;;;;;23.20;99.90;;;;;;5032644;28;19916;-71
2023/01/29 14:28:28;;;;;;;;;;;23.20;99.90;;;;;;5034151;28;19912;-71
2023/01/29 14:30:55;;;;;;;;;;;23.20;99.90;;;;;;5048345;28;19999;-72
2023/01/29 14:33:27;;;;;;;;;;;23.20;99.90;;;;;;5034603;28;21815;-72
2023/01/29 14:35:55;;;;;;;;;;;23.20;99.90;;;;;;5032729;28;19968;-71
2023/01/29 14:38:23;;;;;;;;;;;23.20;99.90;;;;;;5033071;28;19924;-73
2023/01/29 14:40:50;;;;;;;;;;;23.20;99.90;;;;;;5032685;28;19928;-70
2023/01/29 14:43:21;;;;;;;;;;;23.20;99.90;;;;;;5033681;28;19908;-71
2023/01/29 14:45:48;;;;;;;;;;;23.20;99.90;;;;;;5032678;28;20015;-72
2023/01/29 14:48:36;;;;;;;;;;;23.20;99.90;;;;;;5032908;28;20287;-71
2023/01/29 14:51:08;;;;;;;;;;;23.20;99.90;;;;;;5046673;28;19966;-71
2023/01/29 14:53:35;;;;;;;;;;;23.20;99.90;;;;;;5032194;28;20359;-71
2023/01/29 14:56:11;;;;;;;;;;;23.20;99.90;;;;;;5031881;28;19920;-71
2023/01/29 14:58:46;;;;;;;;;;;23.20;99.90;;;;;;5034092;28;20537;-71
2023/01/29 15:01:20;;;;;;;;;;;23.20;99.90;;;;;;5030996;28;19912;-71
2023/01/29 15:03:49;;;;;;;;;;;23.20;99.90;;;;;;5031860;28;20098;-70